createdAt,value
2019-02-22T00:00:52.230Z,9.74
2019-02-22T00:03:22.015Z,9.83
2019-02-22T00:05:51.462Z,9.83
2019-02-22T00:08:21.448Z,9.79
2019-02-22T00:10:50.918Z,9.80
2019-02-22T00:13:21.227Z,9.73
2019-02-22T00:15:50.949Z,9.81
2019-02-22T00:18:22.808Z,9.75
2019-02-22T00:20:52.811Z,9.70
2019-02-22T00:23:24.439Z,9.69
2019-02-22T00:25:54.932Z,9.66
2019-02-22T00:28:26.438Z,9.71
2019-02-22T00:30:58.203Z,9.72
2019-02-22T00:33:27.425Z,9.70
2019-02-22T00:35:57.084Z,9.70
2019-02-22T00:38:27.122Z,9.69
2019-02-22T00:40:59.935Z,9.74
2019-02-22T00:43:31.589Z,9.68
2019-02-22T00:46:02.269Z,9.71
2019-02-22T00:48:34.116Z,9.65
2019-02-22T00:51:04.902Z,9.68
2019-02-22T00:53:35.471Z,9.63
2019-02-22T00:56:05.719Z,9.64
2019-02-22T00:58:35.703Z,9.60
2019-02-22T01:01:09.394Z,9.60
2019-02-22T01:03:39.512Z,9.57
2019-02-22T01:06:08.995Z,9.56
2019-02-22T01:08:38.200Z,9.59
2019-02-22T01:11:13.241Z,9.55
2019-02-22T01:13:43.276Z,9.58
2019-02-22T01:16:16.508Z,9.59
2019-02-22T01:18:48.332Z,9.52
2019-02-22T01:21:18.497Z,9.56
2019-02-22T01:23:50.973Z,9.52
2019-02-22T01:26:22.459Z,9.54
2019-02-22T01:28:54.734Z,9.50
2019-02-22T01:31:24.026Z,9.51
2019-02-22T01:34:15.372Z,9.43
2019-02-22T01:36:49.277Z,9.55
2019-02-22T01:39:18.463Z,9.51
2019-02-22T01:41:49.465Z,9.48
2019-02-22T01:44:23.781Z,9.46
2019-02-22T01:46:54.506Z,9.50
2019-02-22T01:49:25.977Z,9.46
2019-02-22T01:51:56.012Z,9.47
2019-02-22T01:54:25.747Z,9.47
2019-02-22T01:56:56.500Z,9.43
2019-02-22T01:59:28.557Z,9.50
2019-02-22T02:02:01.328Z,9.49
2019-02-22T02:04:30.496Z,9.49
2019-02-22T02:07:00.376Z,9.49
2019-02-22T02:09:31.287Z,9.43
2019-02-22T02:12:02.110Z,9.49
2019-02-22T02:14:33.118Z,9.49
2019-02-22T02:17:05.730Z,9.49
2019-02-22T02:19:35.146Z,9.47
2019-02-22T02:22:04.683Z,9.51
2019-02-22T02:24:37.974Z,9.53
2019-02-22T02:27:11.651Z,9.50
2019-02-22T02:29:44.665Z,9.54
2019-02-22T02:32:15.325Z,9.52
2019-02-22T02:34:45.288Z,9.55
2019-02-22T02:37:17.125Z,9.52
2019-02-22T02:39:47.436Z,9.51
2019-02-22T02:42:20.840Z,9.43
2019-02-22T02:44:50.398Z,9.45
2019-02-22T02:47:21.161Z,9.51
2019-02-22T02:49:51.104Z,9.46
2019-02-22T02:52:21.816Z,9.39
2019-02-22T02:54:52.138Z,9.44
2019-02-22T02:57:22.034Z,9.41
2019-02-22T02:59:51.209Z,9.48
2019-02-22T03:02:24.401Z,9.43
2019-02-22T03:04:57.091Z,9.50
2019-02-22T03:07:54.683Z,9.46
2019-02-22T03:10:26.035Z,9.40
2019-02-22T03:12:55.267Z,9.48
2019-02-22T03:15:25.567Z,9.46
2019-02-22T03:17:55.287Z,9.40
2019-02-22T03:20:26.774Z,9.38
2019-02-22T03:22:57.923Z,9.41
2019-02-22T03:25:28.929Z,9.43
2019-02-22T03:28:00.294Z,9.35
2019-02-22T03:30:31.321Z,9.40
2019-02-22T03:33:04.732Z,9.36
2019-02-22T03:35:34.699Z,9.38
2019-02-22T03:38:05.950Z,9.38
2019-02-22T03:40:37.271Z,9.32
2019-02-22T03:43:06.797Z,9.29
2019-02-22T03:45:36.466Z,9.32
2019-02-22T03:48:06.933Z,9.36
2019-02-22T03:50:40.594Z,9.39
2019-02-22T03:53:33.006Z,9.40
2019-02-22T03:56:03.278Z,9.35
2019-02-22T03:58:32.704Z,9.28
2019-02-22T04:01:03.012Z,9.35
2019-02-22T04:03:35.097Z,9.27
2019-02-22T04:06:05.113Z,9.23
2019-02-22T04:08:36.394Z,9.24
2019-02-22T04:11:06.120Z,9.25
2019-02-22T04:13:35.883Z,9.21
2019-02-22T04:16:06.221Z,9.20
2019-02-22T04:18:35.679Z,9.33
2019-02-22T04:21:07.254Z,9.34
2019-02-22T04:23:37.211Z,9.22
2019-02-22T04:26:06.716Z,9.27
2019-02-22T04:28:36.449Z,9.23
2019-02-22T04:31:06.711Z,9.18
2019-02-22T04:33:37.093Z,9.21
2019-02-22T04:36:06.870Z,9.18
2019-02-22T04:38:36.543Z,9.10
2019-02-22T04:41:07.550Z,9.13
2019-02-22T04:43:38.510Z,9.15
2019-02-22T04:46:08.823Z,9.16
2019-02-22T04:48:37.999Z,9.17
2019-02-22T04:51:07.430Z,9.17
2019-02-22T04:53:37.201Z,9.16
2019-02-22T04:56:10.775Z,9.17
2019-02-22T04:58:41.038Z,9.08
2019-02-22T05:01:13.369Z,9.08
2019-02-22T05:03:44.738Z,9.09
2019-02-22T05:06:15.200Z,9.11
2019-02-22T05:08:46.755Z,9.06
2019-02-22T05:11:19.265Z,8.92
2019-02-22T05:13:48.730Z,8.95
2019-02-22T05:16:18.967Z,8.88
2019-02-22T05:18:48.741Z,8.89
2019-02-22T05:21:17.916Z,8.93
2019-02-22T05:23:48.989Z,8.94
2019-02-22T05:26:18.173Z,8.93
2019-02-22T05:28:47.940Z,8.92
2019-02-22T05:31:17.649Z,8.93
2019-02-22T05:33:46.869Z,8.92
2019-02-22T05:36:16.034Z,8.94
2019-02-22T05:38:45.303Z,9.00
2019-02-22T05:41:15.249Z,9.02
2019-02-22T05:43:46.580Z,9.00
2019-02-22T05:46:18.044Z,8.94
2019-02-22T05:48:48.649Z,8.92
2019-02-22T05:51:19.078Z,8.88
2019-02-22T05:53:50.592Z,8.92
2019-02-22T05:56:20.387Z,8.87
2019-02-22T05:58:50.120Z,8.95
2019-02-22T06:01:19.904Z,8.96
2019-02-22T06:03:49.125Z,9.02
2019-02-22T06:06:18.274Z,9.00
2019-02-22T06:08:49.453Z,9.05
2019-02-22T06:11:18.781Z,8.96
2019-02-22T06:13:48.550Z,8.99
2019-02-22T06:16:17.779Z,8.98
2019-02-22T06:18:48.120Z,9.01
2019-02-22T06:21:18.146Z,9.06
2019-02-22T06:23:49.983Z,9.05
2019-02-22T06:26:19.197Z,8.98
2019-02-22T06:28:54.341Z,8.99
2019-02-22T06:31:25.342Z,9.03
2019-02-22T06:33:55.120Z,9.07
2019-02-22T06:36:24.339Z,9.07
2019-02-22T06:38:54.143Z,9.03
2019-02-22T06:41:26.928Z,9.03
2019-02-22T06:43:56.403Z,9.06
2019-02-22T06:46:28.475Z,9.10
2019-02-22T06:48:58.223Z,9.11
2019-02-22T06:51:30.677Z,9.14
2019-02-22T06:54:00.276Z,9.15
2019-02-22T06:56:30.141Z,9.24
2019-02-22T06:59:00.265Z,9.20
2019-02-22T07:01:29.507Z,9.12
2019-02-22T07:04:03.536Z,9.18
2019-02-22T07:06:33.108Z,9.22
2019-02-22T07:09:05.199Z,9.23
2019-02-22T07:11:53.582Z,9.28
2019-02-22T07:14:23.955Z,9.22
2019-02-22T07:16:54.802Z,9.30
2019-02-22T07:19:24.119Z,9.22
2019-02-22T07:21:54.002Z,9.20
2019-02-22T07:24:24.059Z,9.15
2019-02-22T07:26:53.877Z,9.15
2019-02-22T07:29:26.513Z,9.15
2019-02-22T07:32:05.449Z,9.17
2019-02-22T07:34:27.864Z,9.20
2019-02-22T07:36:57.126Z,9.24
2019-02-22T07:39:28.089Z,9.35
2019-02-22T07:41:57.864Z,9.36
2019-02-22T07:44:29.563Z,9.41
2019-02-22T07:46:58.998Z,9.43
2019-02-22T07:49:29.577Z,9.41
2019-02-22T07:51:58.770Z,9.43
2019-02-22T07:54:40.613Z,9.44
2019-02-22T07:57:10.399Z,9.57
2019-02-22T07:59:41.556Z,9.58
2019-02-22T08:02:12.417Z,9.50
2019-02-22T08:04:42.032Z,9.56
2019-02-22T08:07:11.298Z,9.57
2019-02-22T08:09:40.987Z,9.69
2019-02-22T08:12:10.257Z,9.69
2019-02-22T08:14:39.685Z,9.69
2019-02-22T08:17:09.081Z,9.80
2019-02-22T08:19:38.276Z,9.85
2019-02-22T08:22:07.463Z,9.77
2019-02-22T08:24:36.753Z,9.85
2019-02-22T08:27:06.234Z,9.88
2019-02-22T08:29:38.428Z,9.93
2019-02-22T08:32:07.790Z,10.11
2019-02-22T08:34:37.021Z,10.20
2019-02-22T08:37:07.000Z,10.34
2019-02-22T08:39:36.779Z,10.48
2019-02-22T08:42:06.320Z,10.27
2019-02-22T08:44:37.528Z,10.23
2019-02-22T08:47:07.287Z,10.10
2019-02-22T08:49:36.476Z,10.18
2019-02-22T08:52:06.134Z,10.17
2019-02-22T08:54:46.308Z,10.20
2019-02-22T08:57:06.830Z,10.25
2019-02-22T08:59:36.038Z,10.15
2019-02-22T09:02:05.197Z,10.12
2019-02-22T09:04:34.387Z,10.16
2019-02-22T09:07:03.592Z,10.22
2019-02-22T09:09:32.746Z,10.24
2019-02-22T09:12:03.353Z,10.36
2019-02-22T09:14:33.838Z,10.26
2019-02-22T09:17:06.013Z,10.23
2019-02-22T09:19:35.351Z,10.24
2019-02-22T09:22:04.528Z,10.36
2019-02-22T09:24:33.504Z,10.48
2019-02-22T09:27:02.963Z,10.32
2019-02-22T09:29:32.532Z,10.32
2019-02-22T09:32:01.773Z,10.28
2019-02-22T09:34:31.282Z,10.38
2019-02-22T09:37:00.500Z,10.42
2019-02-22T09:39:30.232Z,10.55
2019-02-22T09:41:59.740Z,10.66
2019-02-22T09:44:29.308Z,10.76
2019-02-22T09:46:58.542Z,10.81
2019-02-22T09:49:27.969Z,10.88
2019-02-22T09:51:57.285Z,10.92
2019-02-22T09:54:26.469Z,10.86
2019-02-22T09:56:56.228Z,10.96
2019-02-22T09:59:32.666Z,11.05
2019-02-22T10:02:06.494Z,11.03
2019-02-22T10:04:35.728Z,11.08
2019-02-22T10:07:04.960Z,11.03
2019-02-22T10:09:34.667Z,11.02
2019-02-22T10:12:04.176Z,10.94
2019-02-22T10:14:33.681Z,10.87
2019-02-22T10:17:03.435Z,10.75
2019-02-22T10:19:32.702Z,10.74
2019-02-22T10:22:07.032Z,10.68
2019-02-22T10:24:36.303Z,10.62
2019-02-22T10:27:07.541Z,10.67
2019-02-22T10:29:37.121Z,10.67
2019-02-22T10:32:07.007Z,10.67
2019-02-22T10:34:41.018Z,10.79
2019-02-22T10:37:10.277Z,10.59
2019-02-22T10:39:39.477Z,10.66
2019-02-22T10:42:08.957Z,10.59
2019-02-22T10:44:38.176Z,10.58
2019-02-22T10:47:07.351Z,10.68
2019-02-22T10:49:36.541Z,10.74
2019-02-22T10:52:06.180Z,10.87
2019-02-22T10:54:35.381Z,10.86
2019-02-22T10:57:05.417Z,10.96
2019-02-22T10:59:34.623Z,11.02
2019-02-22T11:02:03.892Z,11.07
2019-02-22T11:04:33.074Z,11.11
2019-02-22T11:07:02.263Z,11.21
2019-02-22T11:09:31.466Z,11.24
2019-02-22T11:12:01.754Z,11.27
2019-02-22T11:14:31.162Z,11.20
2019-02-22T11:17:02.248Z,11.18
2019-02-22T11:19:31.762Z,11.20
2019-02-22T11:22:00.942Z,11.20
2019-02-22T11:24:30.160Z,11.31
2019-02-22T11:27:09.386Z,11.32
2019-02-22T11:29:38.688Z,11.34
2019-02-22T11:32:08.293Z,11.26
2019-02-22T11:34:37.816Z,11.25
2019-02-22T11:37:07.077Z,11.24
2019-02-22T11:39:37.154Z,11.39
2019-02-22T11:42:06.729Z,11.29
2019-02-22T11:44:40.211Z,11.36
2019-02-22T11:47:06.819Z,11.22
2019-02-22T11:49:36.630Z,11.20
2019-02-22T11:52:06.458Z,11.13
2019-02-22T11:54:35.611Z,11.13
2019-02-22T11:57:05.009Z,11.03
2019-02-22T11:59:34.190Z,11.00
2019-02-22T12:02:03.413Z,11.07
2019-02-22T12:04:34.319Z,10.86
2019-02-22T12:07:03.918Z,10.81
2019-02-22T12:09:33.092Z,10.94
2019-02-22T12:12:02.604Z,10.82
2019-02-22T12:14:31.827Z,10.84
2019-02-22T12:17:02.196Z,10.74
2019-02-22T12:19:31.727Z,10.78
2019-02-22T12:22:00.942Z,10.68
2019-02-22T12:24:32.709Z,10.70
2019-02-22T12:27:09.723Z,10.72
2019-02-22T12:29:38.995Z,10.77
2019-02-22T12:32:09.747Z,10.81
2019-02-22T12:34:38.958Z,10.75
2019-02-22T12:37:08.408Z,10.81
2019-02-22T12:39:37.664Z,10.88
2019-02-22T12:42:07.173Z,10.91
2019-02-22T12:44:36.611Z,10.94
2019-02-22T12:47:06.784Z,10.92
2019-02-22T12:49:36.946Z,10.90
2019-02-22T12:52:06.192Z,10.92
2019-02-22T12:54:35.626Z,11.00
2019-02-22T12:57:04.884Z,10.95
2019-02-22T12:59:34.633Z,10.92
2019-02-22T13:02:03.910Z,10.93
2019-02-22T13:04:33.436Z,10.94
2019-02-22T13:07:03.224Z,10.84
2019-02-22T13:09:36.400Z,10.74
2019-02-22T13:12:13.651Z,10.69
2019-02-22T13:14:36.259Z,10.60
2019-02-22T13:17:07.440Z,10.59
2019-02-22T13:19:39.405Z,10.63
2019-02-22T13:22:11.034Z,10.62
2019-02-22T13:24:41.890Z,10.59
2019-02-22T13:27:21.292Z,10.59
2019-02-22T13:29:53.156Z,10.53
2019-02-22T13:32:27.932Z,10.56
2019-02-22T13:35:00.262Z,10.55
2019-02-22T13:37:34.265Z,10.48
2019-02-22T13:40:04.159Z,10.42
2019-02-22T13:42:35.665Z,10.38
2019-02-22T13:45:05.187Z,10.30
2019-02-22T13:47:36.859Z,10.29
2019-02-22T13:50:10.139Z,10.26
2019-02-22T13:53:02.402Z,10.28
2019-02-22T13:55:47.628Z,10.28
2019-02-22T13:58:17.066Z,10.21
2019-02-22T14:00:47.077Z,10.35
2019-02-22T14:03:17.700Z,10.32
2019-02-22T14:05:47.092Z,10.44
2019-02-22T14:08:18.577Z,10.30
2019-02-22T14:10:48.055Z,10.23
2019-02-22T14:13:17.891Z,10.20
2019-02-22T14:15:47.859Z,10.19
2019-02-22T14:18:17.563Z,10.26
2019-02-22T14:20:47.538Z,10.23
2019-02-22T14:23:17.052Z,10.34
2019-02-22T14:25:46.274Z,10.45
2019-02-22T14:28:16.670Z,10.48
2019-02-22T14:30:48.451Z,10.50
2019-02-22T14:33:23.995Z,10.53
2019-02-22T14:35:54.367Z,10.43
2019-02-22T14:38:23.607Z,10.39
2019-02-22T14:40:53.182Z,10.31
2019-02-22T14:43:23.464Z,10.32
2019-02-22T14:45:53.282Z,10.42
2019-02-22T14:48:23.611Z,10.31
2019-02-22T14:50:53.083Z,10.41
2019-02-22T14:53:24.494Z,10.44
2019-02-22T14:55:53.880Z,10.51
2019-02-22T14:58:24.577Z,10.53
2019-02-22T15:00:53.785Z,10.44
2019-02-22T15:03:29.136Z,10.50
2019-02-22T15:05:59.396Z,10.64
2019-02-22T15:08:29.307Z,10.68
2019-02-22T15:10:59.268Z,10.71
2019-02-22T15:13:28.447Z,10.84
2019-02-22T15:16:32.236Z,10.89
2019-02-22T15:19:01.757Z,10.90
2019-02-22T15:21:31.226Z,10.96
2019-02-22T15:24:01.901Z,10.91
2019-02-22T15:26:31.861Z,10.89
2019-02-22T15:29:04.421Z,10.83
2019-02-22T15:31:36.401Z,10.86
2019-02-22T15:34:07.807Z,10.85
2019-02-22T15:36:39.049Z,11.42
2019-02-22T15:39:09.792Z,12.38
2019-02-22T15:41:39.323Z,12.13
2019-02-22T15:44:09.946Z,11.98
2019-02-22T15:46:41.331Z,11.70
2019-02-22T15:49:11.769Z,11.35
2019-02-22T15:51:44.831Z,11.16
2019-02-22T15:54:14.363Z,11.15
2019-02-22T15:56:48.748Z,11.00
2019-02-22T15:59:20.933Z,11.09
2019-02-22T16:01:55.808Z,10.95
2019-02-22T16:04:41.319Z,10.82
2019-02-22T16:07:11.431Z,10.78
2019-02-22T16:09:41.040Z,10.73
2019-02-22T16:12:12.435Z,10.68
2019-02-22T16:14:42.465Z,10.60
2019-02-22T16:17:12.030Z,10.67
2019-02-22T16:19:42.674Z,10.73
2019-02-22T16:22:16.741Z,10.71
2019-02-22T16:24:47.147Z,10.66
2019-02-22T16:27:18.069Z,10.65
2019-02-22T16:29:47.505Z,10.51
2019-02-22T16:32:16.690Z,10.47
2019-02-22T16:34:47.123Z,10.50
2019-02-22T16:37:16.333Z,10.50
2019-02-22T16:39:46.653Z,10.53
2019-02-22T16:42:21.217Z,10.50
2019-02-22T16:44:50.617Z,10.53
2019-02-22T16:47:19.784Z,10.41
2019-02-22T16:49:49.338Z,10.43
2019-02-22T16:52:21.591Z,10.31
2019-02-22T16:54:52.710Z,10.30
2019-02-22T16:57:23.211Z,10.24
2019-02-22T16:59:53.420Z,10.20
2019-02-22T17:02:22.934Z,10.07
2019-02-22T17:04:52.773Z,10.10
2019-02-22T17:07:22.218Z,10.06
2019-02-22T17:09:52.889Z,10.08
2019-02-22T17:12:22.367Z,9.99
2019-02-22T17:14:54.571Z,9.87
2019-02-22T17:17:24.069Z,9.81
2019-02-22T17:19:54.100Z,9.72
2019-02-22T17:22:23.267Z,9.66
2019-02-22T17:24:52.484Z,9.61
2019-02-22T17:27:21.943Z,9.63
2019-02-22T17:29:51.926Z,9.50
2019-02-22T17:32:21.178Z,9.56
2019-02-22T17:34:50.387Z,9.48
2019-02-22T17:37:21.053Z,9.46
2019-02-22T17:39:50.242Z,9.48
2019-02-22T17:42:19.418Z,9.39
2019-02-22T17:44:48.653Z,9.41
2019-02-22T17:47:17.813Z,9.42
2019-02-22T17:49:47.016Z,9.35
2019-02-22T17:52:16.221Z,9.39
2019-02-22T17:54:45.717Z,9.33
2019-02-22T17:57:15.536Z,9.39
2019-02-22T17:59:46.746Z,9.44
2019-02-22T18:02:17.206Z,9.44
2019-02-22T18:04:48.460Z,9.39
2019-02-22T18:07:17.899Z,9.42
2019-02-22T18:09:48.914Z,9.37
2019-02-22T18:12:18.411Z,9.28
2019-02-22T18:14:55.517Z,9.28
2019-02-22T18:17:24.724Z,9.25
2019-02-22T18:19:55.663Z,9.22
2019-02-22T18:22:26.206Z,9.21
2019-02-22T18:24:57.570Z,9.28
2019-02-22T18:27:27.048Z,9.16
2019-02-22T18:29:56.664Z,9.19
2019-02-22T18:32:26.217Z,9.12
2019-02-22T18:34:55.726Z,9.11
2019-02-22T18:37:24.940Z,8.94
2019-02-22T18:39:56.414Z,8.99
2019-02-22T18:42:25.620Z,8.85
2019-02-22T18:44:57.251Z,8.81
2019-02-22T18:47:30.483Z,8.66
2019-02-22T18:49:59.912Z,8.64
2019-02-22T18:52:32.308Z,8.50
2019-02-22T18:55:02.116Z,8.42
2019-02-22T18:57:44.757Z,8.32
2019-02-22T19:00:21.658Z,8.13
2019-02-22T19:02:54.267Z,8.00
2019-02-22T19:05:23.746Z,8.00
2019-02-22T19:07:56.509Z,7.85
2019-02-22T19:10:25.689Z,7.68
2019-02-22T19:12:56.254Z,7.57
2019-02-22T19:15:26.287Z,7.59
2019-02-22T19:17:55.876Z,7.67
2019-02-22T19:20:25.585Z,7.77
2019-02-22T19:22:56.444Z,7.82
2019-02-22T19:25:25.756Z,7.97
2019-02-22T19:27:55.064Z,8.15
2019-02-22T19:30:25.690Z,8.15
2019-02-22T19:32:55.880Z,8.16
2019-02-22T19:35:25.718Z,8.15
2019-02-22T19:37:57.483Z,8.23
2019-02-22T19:40:27.026Z,8.40
2019-02-22T19:42:56.283Z,8.26
2019-02-22T19:45:26.764Z,8.27
2019-02-22T19:47:56.984Z,8.27
2019-02-22T19:50:27.330Z,8.29
2019-02-22T19:52:58.553Z,8.36
2019-02-22T19:55:28.536Z,8.35
2019-02-22T19:57:59.071Z,8.24
2019-02-22T20:00:28.286Z,8.15
2019-02-22T20:02:57.435Z,8.07
2019-02-22T20:05:26.973Z,8.17
2019-02-22T20:07:57.543Z,8.10
2019-02-22T20:10:30.406Z,8.12
2019-02-22T20:13:00.148Z,8.06
2019-02-22T20:15:30.940Z,8.13
2019-02-22T20:18:01.420Z,8.06
2019-02-22T20:20:31.657Z,8.03
2019-02-22T20:23:02.244Z,8.17
2019-02-22T20:25:31.627Z,8.16
2019-02-22T20:28:01.419Z,8.03
2019-02-22T20:30:30.937Z,8.09
2019-02-22T20:33:00.866Z,8.04
2019-02-22T20:35:30.329Z,8.12
2019-02-22T20:38:05.687Z,7.98
2019-02-22T20:40:38.561Z,8.02
2019-02-22T20:43:12.417Z,8.09
2019-02-22T20:45:45.135Z,7.96
2019-02-22T20:48:14.848Z,8.07
2019-02-22T20:50:44.303Z,8.01
2019-02-22T20:53:13.484Z,7.94
2019-02-22T20:55:43.977Z,7.88
2019-02-22T20:58:14.875Z,7.95
2019-02-22T21:00:45.192Z,7.90
2019-02-22T21:03:19.745Z,7.92
2019-02-22T21:05:53.353Z,7.72
2019-02-22T21:08:34.129Z,7.61
2019-02-22T21:11:07.734Z,7.52
2019-02-22T21:13:37.480Z,7.56
2019-02-22T21:16:08.292Z,7.61
2019-02-22T21:18:37.741Z,7.57
2019-02-22T21:21:06.948Z,7.60
2019-02-22T21:23:36.126Z,7.44
2019-02-22T21:26:06.658Z,7.49
2019-02-22T21:28:35.951Z,7.49
2019-02-22T21:31:08.776Z,7.34
2019-02-22T21:33:37.956Z,7.26
2019-02-22T21:36:07.686Z,7.31
2019-02-22T21:38:38.039Z,7.06
2019-02-22T21:41:07.220Z,7.05
2019-02-22T21:43:37.559Z,6.99
2019-02-22T21:46:07.017Z,6.82
2019-02-22T21:48:41.409Z,6.56
2019-02-22T21:51:10.591Z,6.48
2019-02-22T21:53:40.016Z,6.53
2019-02-22T21:56:09.179Z,6.55
2019-02-22T21:58:38.653Z,6.40
2019-02-22T22:01:08.093Z,6.45
2019-02-22T22:03:37.532Z,6.44
2019-02-22T22:06:07.181Z,6.40
2019-02-22T22:08:55.564Z,6.13
2019-02-22T22:11:25.800Z,5.99
2019-02-22T22:13:55.297Z,6.03
2019-02-22T22:16:29.294Z,5.85
2019-02-22T22:19:02.319Z,5.77
2019-02-22T22:21:32.963Z,5.85
2019-02-22T22:24:48.957Z,5.72
2019-02-22T22:27:37.543Z,5.82
2019-02-22T22:30:09.759Z,5.62
2019-02-22T22:32:39.468Z,5.61
2019-02-22T22:35:13.575Z,5.61
2019-02-22T22:37:43.106Z,5.55
2019-02-22T22:40:12.302Z,5.55
2019-02-22T22:42:41.476Z,5.50
2019-02-22T22:45:11.367Z,5.46
2019-02-22T22:47:40.722Z,5.29
2019-02-22T22:50:11.401Z,5.33
2019-02-22T22:52:40.844Z,5.28
2019-02-22T22:55:10.533Z,5.35
2019-02-22T22:57:40.089Z,5.14
2019-02-22T23:00:21.115Z,5.15
2019-02-22T23:02:51.131Z,4.99
2019-02-22T23:05:20.899Z,5.16
2019-02-22T23:07:50.905Z,4.98
2019-02-22T23:10:20.921Z,4.99
2019-02-22T23:12:54.797Z,5.03
2019-02-22T23:15:24.261Z,5.04
2019-02-22T23:17:56.660Z,4.97
2019-02-22T23:20:26.119Z,5.01
2019-02-22T23:22:56.436Z,4.93
2019-02-22T23:25:26.459Z,4.91
2019-02-22T23:28:01.075Z,4.82
2019-02-22T23:30:32.314Z,4.89
2019-02-22T23:33:02.630Z,4.73
2019-02-22T23:35:32.982Z,4.75
2019-02-22T23:38:02.687Z,4.71
2019-02-22T23:40:33.879Z,4.65
2019-02-22T23:43:03.428Z,4.74
2019-02-22T23:45:32.901Z,4.73
2019-02-22T23:48:02.295Z,4.78
2019-02-22T23:50:32.850Z,4.64
2019-02-22T23:53:02.016Z,4.63
2019-02-22T23:55:45.003Z,4.61
2019-02-22T23:58:20.992Z,4.52
